createdAt,value
2018-05-16T00:00:51.634Z,0
2018-05-16T00:01:51.317Z,0
2018-05-16T00:02:50.988Z,0
2018-05-16T00:03:50.948Z,0
2018-05-16T00:04:50.833Z,0
2018-05-16T00:05:50.803Z,0
2018-05-16T00:07:10.913Z,0
2018-05-16T00:08:11.962Z,0
2018-05-16T00:09:11.401Z,0
2018-05-16T00:10:11.860Z,0
2018-05-16T00:11:11.939Z,0
2018-05-16T00:12:11.983Z,0
2018-05-16T00:13:12.004Z,0
2018-05-16T00:14:32.633Z,0
2018-05-16T00:15:33.245Z,0
2018-05-16T00:16:33.296Z,0
2018-05-16T00:17:33.152Z,0
2018-05-16T00:18:33.064Z,0
2018-05-16T00:19:53.861Z,0
2018-05-16T00:20:53.954Z,0
2018-05-16T00:21:53.603Z,0
2018-05-16T00:22:54.282Z,0
2018-05-16T00:23:53.998Z,0
2018-05-16T00:24:53.597Z,0
2018-05-16T00:25:54.132Z,0
2018-05-16T00:26:54.153Z,0
2018-05-16T00:27:54.312Z,0
2018-05-16T00:28:54.330Z,0
2018-05-16T00:30:14.496Z,0
2018-05-16T00:31:15.135Z,0
2018-05-16T00:32:14.862Z,0
2018-05-16T00:33:14.846Z,0
2018-05-16T00:34:15.417Z,0
2018-05-16T00:35:36.029Z,0
2018-05-16T00:37:17.116Z,0
2018-05-16T00:38:17.824Z,0
2018-05-16T00:39:17.429Z,0
2018-05-16T00:40:17.522Z,0
2018-05-16T00:41:18.430Z,0
2018-05-16T00:42:18.277Z,0
2018-05-16T00:43:17.816Z,0
2018-05-16T00:44:17.821Z,0
2018-05-16T00:45:17.816Z,0
2018-05-16T00:46:17.458Z,0
2018-05-16T00:47:17.856Z,0
2018-05-16T00:48:17.326Z,0
2018-05-16T00:49:18.263Z,0
2018-05-16T00:50:38.568Z,0
2018-05-16T00:51:39.026Z,0
2018-05-16T00:52:59.757Z,0
2018-05-16T00:54:00.746Z,0
2018-05-16T00:55:00.678Z,0
2018-05-16T00:56:00.591Z,0
2018-05-16T00:57:00.031Z,0
2018-05-16T00:58:20.718Z,0
2018-05-16T00:59:21.479Z,0
2018-05-16T01:00:21.307Z,0
2018-05-16T01:01:20.937Z,0
2018-05-16T01:02:21.544Z,0
2018-05-16T01:03:21.559Z,0
2018-05-16T01:04:21.130Z,0
2018-05-16T01:05:21.654Z,0
2018-05-16T01:06:21.240Z,0
2018-05-16T01:07:20.839Z,0
2018-05-16T01:08:21.672Z,0
2018-05-16T01:09:21.704Z,0
2018-05-16T01:10:21.386Z,0
2018-05-16T01:11:21.139Z,0
2018-05-16T01:12:21.234Z,0
2018-05-16T01:13:20.876Z,0
2018-05-16T01:14:21.498Z,0
2018-05-16T01:15:21.314Z,0
2018-05-16T01:16:21.151Z,0
2018-05-16T01:17:21.105Z,0
2018-05-16T01:18:20.666Z,0
2018-05-16T01:19:21.162Z,0
2018-05-16T01:20:21.156Z,0
2018-05-16T01:21:21.583Z,0
2018-05-16T01:22:21.689Z,0
2018-05-16T01:23:21.217Z,0
2018-05-16T01:24:21.047Z,0
2018-05-16T01:25:21.637Z,0
2018-05-16T01:26:21.287Z,0
2018-05-16T01:27:21.265Z,0
2018-05-16T01:28:20.878Z,0
2018-05-16T01:29:21.461Z,0
2018-05-16T01:30:21.032Z,0
2018-05-16T01:31:21.580Z,0
2018-05-16T01:32:21.487Z,0
2018-05-16T01:33:21.292Z,0
2018-05-16T01:34:20.851Z,0
2018-05-16T01:35:33.630Z,0
2018-05-16T01:36:21.123Z,0
2018-05-16T01:37:20.993Z,0
2018-05-16T01:38:21.543Z,0
2018-05-16T01:39:21.131Z,0
2018-05-16T01:40:20.806Z,0
2018-05-16T01:41:21.463Z,0
2018-05-16T01:42:21.080Z,0
2018-05-16T01:43:21.515Z,0
2018-05-16T01:44:21.351Z,0
2018-05-16T01:45:21.297Z,0
2018-05-16T01:46:21.074Z,0
2018-05-16T01:47:21.631Z,0
2018-05-16T01:48:21.196Z,0
2018-05-16T01:49:21.200Z,0
2018-05-16T01:50:21.250Z,0
2018-05-16T01:51:21.095Z,0
2018-05-16T01:53:05.118Z,0
2018-05-16T01:54:06.090Z,0
2018-05-16T01:55:05.828Z,0
2018-05-16T01:56:05.818Z,0
2018-05-16T01:57:05.341Z,0
2018-05-16T01:58:05.921Z,0
2018-05-16T01:59:05.840Z,0
2018-05-16T02:00:26.223Z,0
2018-05-16T02:01:27.276Z,0
2018-05-16T02:03:30.605Z,0
2018-05-16T02:04:31.274Z,0
2018-05-16T02:05:31.167Z,0
2018-05-16T02:07:32.398Z,0
2018-05-16T02:08:33.036Z,0
2018-05-16T02:09:32.887Z,0
2018-05-16T02:10:32.789Z,0
2018-05-16T02:11:33.758Z,0
2018-05-16T02:12:32.822Z,0
2018-05-16T02:13:32.512Z,0
2018-05-16T02:14:53.775Z,0
2018-05-16T02:15:54.842Z,0
2018-05-16T02:16:54.459Z,0
2018-05-16T02:17:54.147Z,0
2018-05-16T02:18:54.190Z,0
2018-05-16T02:19:54.739Z,0
2018-05-16T02:20:54.905Z,0
2018-05-16T02:21:54.562Z,0
2018-05-16T02:22:54.383Z,0
2018-05-16T02:23:54.174Z,0
2018-05-16T02:24:54.212Z,0
2018-05-16T02:25:54.215Z,0
2018-05-16T02:26:54.679Z,0
2018-05-16T02:27:54.454Z,0
2018-05-16T02:28:54.055Z,0
2018-05-16T02:29:54.721Z,0
2018-05-16T02:30:54.813Z,0
2018-05-16T02:31:54.726Z,0
2018-05-16T02:32:54.271Z,0
2018-05-16T02:33:54.272Z,0
2018-05-16T02:34:54.157Z,0
2018-05-16T02:35:54.615Z,0
2018-05-16T02:36:54.240Z,0
2018-05-16T02:37:53.918Z,0
2018-05-16T02:38:54.562Z,0
2018-05-16T02:39:54.413Z,0
2018-05-16T02:41:15.042Z,0
2018-05-16T02:42:16.003Z,0
2018-05-16T02:43:14.630Z,0
2018-05-16T02:44:15.403Z,0
2018-05-16T02:45:15.265Z,0
2018-05-16T02:46:15.138Z,0
2018-05-16T02:47:14.760Z,0
2018-05-16T02:48:56.521Z,0
2018-05-16T02:49:57.184Z,0
2018-05-16T02:51:37.860Z,0
2018-05-16T02:52:38.351Z,0
2018-05-16T02:53:38.394Z,0
2018-05-16T02:54:37.964Z,0
2018-05-16T02:55:38.582Z,0
2018-05-16T02:56:38.157Z,0
2018-05-16T02:57:59.545Z,0
2018-05-16T02:59:00.347Z,0
2018-05-16T02:59:59.871Z,0
2018-05-16T03:00:59.798Z,0
2018-05-16T03:01:59.560Z,0
2018-05-16T03:03:00.215Z,0
2018-05-16T03:03:59.937Z,0
2018-05-16T03:04:59.713Z,0
2018-05-16T03:05:59.725Z,0
2018-05-16T03:07:00.218Z,0
2018-05-16T03:08:00.274Z,0
2018-05-16T03:09:00.330Z,0
2018-05-16T03:09:59.955Z,0
2018-05-16T03:11:20.054Z,0
2018-05-16T03:12:21.395Z,0
2018-05-16T03:13:21.377Z,0
2018-05-16T03:14:21.388Z,0
2018-05-16T03:15:41.697Z,0
2018-05-16T03:16:42.260Z,0
2018-05-16T03:17:42.286Z,0
2018-05-16T03:18:42.398Z,0
2018-05-16T03:19:42.418Z,0
2018-05-16T03:20:42.058Z,1
2018-05-16T03:21:41.817Z,1
2018-05-16T03:22:41.484Z,1
2018-05-16T03:23:42.470Z,1
2018-05-16T03:24:42.065Z,1
2018-05-16T03:25:41.734Z,1
2018-05-16T03:26:42.717Z,1
2018-05-16T03:27:42.307Z,1
2018-05-16T03:28:42.408Z,2
2018-05-16T03:29:42.483Z,2
2018-05-16T03:30:42.285Z,2
2018-05-16T03:31:42.294Z,2
2018-05-16T03:32:42.179Z,2
2018-05-16T03:33:41.957Z,2
2018-05-16T03:34:41.988Z,3
2018-05-16T03:35:41.555Z,3
2018-05-16T03:36:42.114Z,3
2018-05-16T03:38:02.615Z,3
2018-05-16T03:39:03.236Z,4
2018-05-16T03:40:03.291Z,4
2018-05-16T03:41:02.789Z,4
2018-05-16T03:42:02.793Z,4
2018-05-16T03:43:02.932Z,5
2018-05-16T03:44:02.894Z,5
2018-05-16T03:45:03.084Z,5
2018-05-16T03:46:02.727Z,6
2018-05-16T03:47:02.379Z,6
2018-05-16T03:48:03.503Z,6
2018-05-16T03:49:03.561Z,7
2018-05-16T03:50:03.478Z,7
2018-05-16T03:51:03.162Z,7
2018-05-16T03:52:03.357Z,8
2018-05-16T03:53:03.059Z,8
2018-05-16T03:54:03.136Z,8
2018-05-16T03:55:03.211Z,9
2018-05-16T03:56:03.383Z,9
2018-05-16T03:57:03.330Z,9
2018-05-16T03:58:02.973Z,10
2018-05-16T03:59:02.733Z,10
2018-05-16T04:00:02.894Z,11
2018-05-16T04:01:02.558Z,11
2018-05-16T04:02:02.693Z,12
2018-05-16T04:03:02.773Z,12
2018-05-16T04:04:03.098Z,13
2018-05-16T04:05:03.361Z,13
2018-05-16T04:06:02.646Z,14
2018-05-16T04:07:03.447Z,14
2018-05-16T04:08:04.226Z,15
2018-05-16T04:09:02.841Z,15
2018-05-16T04:10:02.710Z,15
2018-05-16T04:11:02.771Z,16
2018-05-16T04:12:04.016Z,16
2018-05-16T04:13:03.189Z,16
2018-05-16T04:14:02.938Z,17
2018-05-16T04:15:02.584Z,17
2018-05-16T04:16:02.679Z,18
2018-05-16T04:17:03.448Z,18
2018-05-16T04:18:02.271Z,18
2018-05-16T04:19:44.691Z,19
2018-05-16T04:20:44.408Z,19
2018-05-16T04:22:05.862Z,20
2018-05-16T04:23:06.547Z,20
2018-05-16T04:24:06.259Z,20
2018-05-16T04:25:06.191Z,20
2018-05-16T04:27:29.026Z,20
2018-05-16T04:28:29.971Z,20
2018-05-16T04:29:30.203Z,20
2018-05-16T04:30:29.970Z,20
2018-05-16T04:31:30.084Z,20
2018-05-16T04:32:50.875Z,21
2018-05-16T04:33:51.106Z,21
2018-05-16T04:34:50.779Z,22
2018-05-16T04:35:50.873Z,24
2018-05-16T04:36:50.566Z,26
2018-05-16T04:37:51.647Z,27
2018-05-16T04:38:52.672Z,29
2018-05-16T04:40:33.601Z,30
2018-05-16T04:41:33.299Z,31
2018-05-16T04:42:34.402Z,32
2018-05-16T04:43:34.416Z,33
2018-05-16T04:44:34.965Z,33
2018-05-16T04:45:55.005Z,32
2018-05-16T04:46:55.111Z,32
2018-05-16T04:47:54.928Z,32
2018-05-16T04:48:54.834Z,31
2018-05-16T04:49:55.521Z,31
2018-05-16T04:51:15.740Z,30
2018-05-16T04:52:16.871Z,30
2018-05-16T04:53:16.513Z,30
2018-05-16T04:54:16.232Z,31
2018-05-16T04:55:16.006Z,33
2018-05-16T04:56:16.081Z,35
2018-05-16T04:57:15.852Z,37
2018-05-16T04:58:16.690Z,38
2018-05-16T04:59:16.480Z,37
2018-05-16T05:00:16.129Z,36
2018-05-16T05:01:16.292Z,34
2018-05-16T05:02:16.123Z,33
2018-05-16T05:03:16.765Z,31
2018-05-16T05:04:16.858Z,30
2018-05-16T05:05:17.051Z,28
2018-05-16T05:06:15.840Z,28
2018-05-16T05:07:16.541Z,28
2018-05-16T05:08:16.684Z,29
2018-05-16T05:09:16.861Z,31
2018-05-16T05:10:16.035Z,35
2018-05-16T05:11:15.722Z,39
2018-05-16T05:12:16.576Z,42
2018-05-16T05:13:16.660Z,43
2018-05-16T05:14:16.793Z,44
2018-05-16T05:15:57.865Z,51
2018-05-16T05:16:59.302Z,57
2018-05-16T05:17:58.237Z,67
2018-05-16T05:18:58.081Z,77
2018-05-16T05:19:59.129Z,88
2018-05-16T05:21:18.814Z,96
2018-05-16T05:22:19.465Z,107
2018-05-16T05:23:19.358Z,107
2018-05-16T05:24:19.175Z,103
2018-05-16T05:25:19.363Z,100
2018-05-16T05:26:19.185Z,92
2018-05-16T05:27:19.329Z,92
2018-05-16T05:28:19.528Z,80
2018-05-16T05:29:19.572Z,72
2018-05-16T05:30:19.543Z,65
2018-05-16T05:31:19.325Z,64
2018-05-16T05:32:18.941Z,66
2018-05-16T05:33:18.818Z,72
2018-05-16T05:34:20.065Z,74
2018-05-16T05:35:18.827Z,80
2018-05-16T05:36:19.619Z,87
2018-05-16T05:37:19.780Z,87
2018-05-16T05:38:19.795Z,87
2018-05-16T05:39:20.032Z,91
2018-05-16T05:40:40.314Z,98
2018-05-16T05:41:40.075Z,98
2018-05-16T05:42:39.879Z,93
2018-05-16T05:43:40.703Z,96
2018-05-16T05:44:40.305Z,96
2018-05-16T05:45:40.182Z,89
2018-05-16T05:46:41.318Z,87
2018-05-16T05:47:41.408Z,87
2018-05-16T05:48:40.552Z,83
2018-05-16T05:49:40.785Z,81
2018-05-16T05:50:40.534Z,78
2018-05-16T05:51:40.613Z,78
2018-05-16T05:52:40.432Z,80
2018-05-16T05:53:40.599Z,87
2018-05-16T05:54:40.820Z,92
2018-05-16T05:55:41.192Z,95
2018-05-16T05:56:40.837Z,99
2018-05-16T05:57:41.096Z,103
2018-05-16T05:58:39.986Z,104
2018-05-16T05:59:40.804Z,105
2018-05-16T06:00:40.514Z,102
2018-05-16T06:01:40.786Z,102
2018-05-16T06:02:40.602Z,103
2018-05-16T06:03:40.521Z,101
2018-05-16T06:05:00.882Z,101
2018-05-16T06:06:02.108Z,102
2018-05-16T06:07:01.344Z,101
2018-05-16T06:08:22.298Z,98
2018-05-16T06:09:22.121Z,95
2018-05-16T06:10:22.389Z,94
2018-05-16T06:11:22.656Z,95
2018-05-16T06:12:22.426Z,98
2018-05-16T06:13:22.657Z,104
2018-05-16T06:14:22.868Z,109
2018-05-16T06:15:23.184Z,111
2018-05-16T06:16:23.644Z,110
2018-05-16T06:17:22.929Z,108
2018-05-16T06:18:22.881Z,106
2018-05-16T06:19:23.213Z,102
2018-05-16T06:20:43.717Z,99
2018-05-16T06:21:44.932Z,98
2018-05-16T06:22:44.170Z,97
2018-05-16T06:24:05.346Z,96
2018-05-16T06:25:05.091Z,94
2018-05-16T06:26:04.983Z,93
2018-05-16T06:27:26.041Z,93
2018-05-16T06:28:27.288Z,95
2018-05-16T06:29:26.232Z,103
2018-05-16T06:30:26.112Z,112
2018-05-16T06:31:30.821Z,122
2018-05-16T06:32:26.618Z,132
2018-05-16T06:33:47.686Z,142
2018-05-16T06:34:49.372Z,145
2018-05-16T06:35:48.108Z,145
2018-05-16T06:36:48.024Z,140
2018-05-16T06:37:48.239Z,129
2018-05-16T06:38:48.239Z,118
2018-05-16T06:39:48.010Z,106
2018-05-16T06:40:48.151Z,99
2018-05-16T06:41:48.031Z,94
2018-05-16T06:42:48.832Z,95
2018-05-16T06:43:47.790Z,99
2018-05-16T06:44:47.563Z,106
2018-05-16T06:45:47.503Z,108
2018-05-16T06:46:48.310Z,108
2018-05-16T06:47:48.377Z,108
2018-05-16T06:48:48.136Z,108
2018-05-16T06:49:48.114Z,113
2018-05-16T06:50:48.043Z,127
2018-05-16T06:51:47.859Z,137
2018-05-16T06:52:48.011Z,135
2018-05-16T06:53:47.889Z,132
2018-05-16T06:54:48.376Z,134
2018-05-16T06:56:08.953Z,139
2018-05-16T06:57:09.853Z,139
2018-05-16T06:58:10.040Z,135
2018-05-16T06:59:52.493Z,126
2018-05-16T07:00:52.404Z,123
2018-05-16T07:01:53.867Z,122
2018-05-16T07:03:13.725Z,128
2018-05-16T07:04:14.692Z,136
2018-05-16T07:05:15.026Z,140
2018-05-16T07:06:14.155Z,150
2018-05-16T07:07:13.949Z,160
2018-05-16T07:08:34.675Z,160
2018-05-16T07:09:36.041Z,161
2018-05-16T07:10:35.177Z,164
2018-05-16T07:11:35.437Z,169
2018-05-16T07:12:35.654Z,167
2018-05-16T07:13:35.956Z,161
2018-05-16T07:14:35.370Z,153
2018-05-16T07:15:35.651Z,147
2018-05-16T07:16:35.939Z,142
2018-05-16T07:17:35.211Z,134
2018-05-16T07:18:35.439Z,130
2018-05-16T07:19:35.291Z,122
2018-05-16T07:20:35.163Z,113
2018-05-16T07:21:35.343Z,117
2018-05-16T07:22:35.118Z,132
2018-05-16T07:23:35.477Z,122
2018-05-16T07:24:35.666Z,105
2018-05-16T07:25:35.625Z,95
2018-05-16T07:26:35.677Z,98
2018-05-16T07:27:35.992Z,113
2018-05-16T07:28:34.882Z,128
2018-05-16T07:29:34.718Z,139
2018-05-16T07:30:36.284Z,132
2018-05-16T07:31:35.025Z,125
2018-05-16T07:32:35.590Z,131
2018-05-16T07:33:35.744Z,141
2018-05-16T07:34:35.932Z,148
2018-05-16T07:35:56.741Z,158
2018-05-16T07:36:56.900Z,162
2018-05-16T07:37:57.052Z,167
2018-05-16T07:38:56.903Z,164
2018-05-16T07:39:56.806Z,162
2018-05-16T07:40:56.914Z,149
2018-05-16T07:41:56.856Z,137
2018-05-16T07:42:56.844Z,138
2018-05-16T07:43:57.348Z,156
2018-05-16T07:44:57.336Z,191
2018-05-16T07:45:57.640Z,282
2018-05-16T07:46:56.890Z,270
2018-05-16T07:47:56.844Z,385
2018-05-16T07:48:57.005Z,264
2018-05-16T07:49:56.960Z,222
2018-05-16T07:50:57.082Z,250
2018-05-16T07:51:56.800Z,260
2018-05-16T07:52:56.646Z,287
2018-05-16T07:54:17.749Z,302
2018-05-16T07:55:17.851Z,308
2018-05-16T07:56:17.746Z,239
2018-05-16T07:57:17.667Z,211
2018-05-16T07:58:38.669Z,172
2018-05-16T07:59:39.278Z,159
2018-05-16T08:00:39.072Z,153
2018-05-16T08:01:38.938Z,154
2018-05-16T08:02:39.357Z,162
2018-05-16T08:03:39.512Z,157
2018-05-16T08:04:40.480Z,155
2018-05-16T08:05:38.886Z,171
2018-05-16T08:06:39.650Z,229
2018-05-16T08:07:39.797Z,358
2018-05-16T08:08:39.231Z,298
2018-05-16T08:09:38.530Z,244
2018-05-16T08:10:38.880Z,230
2018-05-16T08:11:40.319Z,248
2018-05-16T08:12:39.585Z,237
2018-05-16T08:13:39.077Z,255
2018-05-16T08:14:39.946Z,363
2018-05-16T08:15:39.287Z,268
2018-05-16T08:16:39.621Z,236
2018-05-16T08:17:38.953Z,233
2018-05-16T08:18:40.014Z,222
2018-05-16T08:20:01.023Z,228
2018-05-16T08:21:01.058Z,264
2018-05-16T08:22:02.697Z,426
2018-05-16T08:23:24.641Z,339
2018-05-16T08:24:24.015Z,408
2018-05-16T08:25:23.833Z,399
2018-05-16T08:26:24.445Z,389
2018-05-16T08:27:24.001Z,359
2018-05-16T08:28:25.461Z,412
2018-05-16T08:29:24.299Z,269
2018-05-16T08:30:24.697Z,421
2018-05-16T08:31:25.949Z,463
2018-05-16T08:32:23.838Z,486
2018-05-16T08:34:07.828Z,454
2018-05-16T08:35:08.306Z,251
2018-05-16T08:36:08.523Z,271
2018-05-16T08:37:08.456Z,324
2018-05-16T08:38:08.258Z,428
2018-05-16T08:39:10.281Z,260
2018-05-16T08:40:07.681Z,391
2018-05-16T08:41:08.439Z,401
2018-05-16T08:42:07.824Z,392
2018-05-16T08:43:08.775Z,405
2018-05-16T08:44:28.554Z,396
2018-05-16T08:45:28.476Z,332
2018-05-16T08:46:29.660Z,342
2018-05-16T08:47:28.938Z,336
2018-05-16T08:48:29.110Z,374
2018-05-16T08:49:29.157Z,353
2018-05-16T08:50:29.070Z,435
2018-05-16T08:51:29.440Z,330
2018-05-16T08:52:29.855Z,331
2018-05-16T08:53:28.689Z,415
2018-05-16T08:54:28.624Z,414
2018-05-16T08:55:28.766Z,402
2018-05-16T08:57:30.970Z,400
2018-05-16T08:58:31.353Z,408
2018-05-16T08:59:31.216Z,424
2018-05-16T09:00:31.076Z,425
2018-05-16T09:01:31.899Z,430
2018-05-16T09:02:32.359Z,426
2018-05-16T09:03:52.334Z,445
2018-05-16T09:04:52.497Z,418
2018-05-16T09:05:52.322Z,429
2018-05-16T09:06:52.414Z,467
2018-05-16T09:07:52.249Z,437
2018-05-16T09:09:33.830Z,406
2018-05-16T09:10:35.037Z,410
2018-05-16T09:11:34.274Z,432
2018-05-16T09:12:34.632Z,422
2018-05-16T09:13:35.904Z,430
2018-05-16T09:14:55.175Z,397
2018-05-16T09:15:55.151Z,368
2018-05-16T09:16:54.934Z,344
2018-05-16T09:17:55.151Z,328
2018-05-16T09:18:54.984Z,324
2018-05-16T09:19:55.353Z,313
2018-05-16T09:20:55.484Z,302
2018-05-16T09:21:55.471Z,294
2018-05-16T09:22:55.459Z,297
2018-05-16T09:23:55.754Z,305
2018-05-16T09:24:55.935Z,332
2018-05-16T09:25:54.734Z,345
2018-05-16T09:26:55.831Z,351
2018-05-16T09:27:55.102Z,343
2018-05-16T09:28:55.265Z,342
2018-05-16T09:29:56.007Z,348
2018-05-16T09:30:55.181Z,353
2018-05-16T09:31:54.957Z,351
2018-05-16T09:32:55.288Z,352
2018-05-16T09:33:55.449Z,341
2018-05-16T09:34:55.292Z,347
2018-05-16T09:35:55.134Z,346
2018-05-16T09:37:16.082Z,346
2018-05-16T09:38:16.188Z,348
2018-05-16T09:39:37.044Z,357
2018-05-16T09:40:36.793Z,343
2018-05-16T09:41:36.637Z,318
2018-05-16T09:42:37.450Z,340
2018-05-16T09:43:37.828Z,356
2018-05-16T09:44:37.044Z,370
2018-05-16T09:45:37.264Z,391
2018-05-16T09:46:36.892Z,411
2018-05-16T09:47:37.277Z,464
2018-05-16T09:49:18.300Z,475
2018-05-16T09:50:19.386Z,486
2018-05-16T09:51:19.679Z,469
2018-05-16T09:52:19.441Z,508
2018-05-16T09:53:18.997Z,530
2018-05-16T09:54:18.958Z,522
2018-05-16T09:55:18.824Z,515
2018-05-16T09:56:19.325Z,501
2018-05-16T09:57:19.107Z,487
2018-05-16T09:58:19.185Z,474
2018-05-16T09:59:39.925Z,525
2018-05-16T10:00:39.830Z,520
2018-05-16T10:01:39.981Z,520
2018-05-16T10:02:39.943Z,492
2018-05-16T10:03:39.713Z,449
2018-05-16T10:04:40.569Z,422
2018-05-16T10:05:40.914Z,431
2018-05-16T10:06:40.023Z,441
2018-05-16T10:07:40.389Z,459
2018-05-16T10:08:40.614Z,490
2018-05-16T10:10:21.468Z,440
2018-05-16T10:11:21.780Z,443
2018-05-16T10:12:21.606Z,485
2018-05-16T10:13:21.910Z,502
2018-05-16T10:14:21.681Z,481
2018-05-16T10:15:22.147Z,476
2018-05-16T10:16:22.495Z,523
2018-05-16T10:17:21.241Z,513
2018-05-16T10:18:23.281Z,522
2018-05-16T10:19:22.007Z,507
2018-05-16T10:20:22.082Z,497
2018-05-16T10:21:22.135Z,431
2018-05-16T10:22:22.425Z,472
2018-05-16T10:23:21.624Z,445
2018-05-16T10:24:21.628Z,413
2018-05-16T10:25:22.055Z,501
2018-05-16T10:26:42.861Z,550
2018-05-16T10:27:44.756Z,553
2018-05-16T10:28:43.628Z,559
2018-05-16T10:30:04.860Z,547
2018-05-16T10:31:05.681Z,550
2018-05-16T10:32:05.418Z,566
2018-05-16T10:33:05.317Z,562
2018-05-16T10:34:05.599Z,540
2018-05-16T10:35:05.761Z,531
2018-05-16T10:36:04.506Z,533
2018-05-16T10:37:49.653Z,559
2018-05-16T10:38:49.986Z,397
2018-05-16T10:39:50.343Z,566
2018-05-16T10:40:50.472Z,561
2018-05-16T10:41:49.283Z,543
2018-05-16T10:42:50.524Z,509
2018-05-16T10:43:49.913Z,400
2018-05-16T10:45:32.924Z,494
2018-05-16T10:46:33.217Z,332
2018-05-16T10:47:33.318Z,416
2018-05-16T10:48:33.405Z,330
2018-05-16T10:49:54.459Z,353
2018-05-16T10:50:54.312Z,348
2018-05-16T10:51:54.139Z,352
2018-05-16T10:52:54.905Z,337
2018-05-16T10:53:54.552Z,323
2018-05-16T10:54:54.816Z,327
2018-05-16T10:55:54.757Z,324
2018-05-16T10:57:57.717Z,311
2018-05-16T10:58:57.426Z,308
2018-05-16T10:59:58.671Z,301
2018-05-16T11:00:57.968Z,321
2018-05-16T11:01:58.196Z,345
2018-05-16T11:02:57.945Z,354
2018-05-16T11:03:57.743Z,354
2018-05-16T11:04:57.684Z,355
2018-05-16T11:05:58.029Z,375
2018-05-16T11:06:58.162Z,375
2018-05-16T11:07:58.643Z,361
2018-05-16T11:08:57.290Z,361
2018-05-16T11:09:58.608Z,373
2018-05-16T11:10:57.447Z,396
2018-05-16T11:11:58.193Z,419
2018-05-16T11:12:58.070Z,440
2018-05-16T11:14:18.727Z,474
2018-05-16T11:15:18.980Z,497
2018-05-16T11:16:19.739Z,498
2018-05-16T11:17:19.039Z,467
2018-05-16T11:18:19.060Z,442
2018-05-16T11:20:01.045Z,506
2018-05-16T11:21:01.235Z,492
2018-05-16T11:22:22.053Z,498
2018-05-16T11:23:23.271Z,489
2018-05-16T11:24:22.162Z,471
2018-05-16T11:25:22.333Z,461
2018-05-16T11:26:22.502Z,463
2018-05-16T11:28:03.844Z,485
2018-05-16T11:29:04.964Z,514
2018-05-16T11:30:05.180Z,519
2018-05-16T11:31:04.273Z,491
2018-05-16T11:33:07.907Z,462
2018-05-16T11:34:08.143Z,467
2018-05-16T11:35:08.053Z,469
2018-05-16T11:36:07.767Z,467
2018-05-16T11:37:08.119Z,473
2018-05-16T11:38:07.993Z,490
2018-05-16T11:39:08.056Z,466
2018-05-16T11:40:08.378Z,502
2018-05-16T11:41:07.230Z,491
2018-05-16T11:42:48.902Z,499
2018-05-16T11:43:49.811Z,488
2018-05-16T11:44:50.014Z,453
2018-05-16T11:45:48.943Z,438
2018-05-16T11:46:49.760Z,425
2018-05-16T11:47:49.686Z,367
2018-05-16T11:49:32.123Z,334
2018-05-16T11:50:32.043Z,391
2018-05-16T11:52:13.908Z,382
2018-05-16T11:53:15.663Z,355
2018-05-16T11:54:16.892Z,361
2018-05-16T11:55:35.341Z,289
2018-05-16T11:56:35.210Z,283
2018-05-16T11:57:35.446Z,313
2018-05-16T11:58:35.675Z,292
2018-05-16T11:59:35.897Z,303
2018-05-16T12:00:35.240Z,346
2018-05-16T12:01:35.290Z,404
2018-05-16T12:02:56.190Z,525
2018-05-16T12:03:56.160Z,397
2018-05-16T12:04:56.451Z,417
2018-05-16T12:05:56.416Z,417
2018-05-16T12:06:56.820Z,357
2018-05-16T12:07:56.328Z,321
2018-05-16T12:08:56.571Z,294
2018-05-16T12:09:56.780Z,281
2018-05-16T12:10:57.630Z,270
2018-05-16T12:11:56.994Z,264
2018-05-16T12:12:57.874Z,273
2018-05-16T12:14:17.326Z,303
2018-05-16T12:15:38.324Z,288
2018-05-16T12:16:38.380Z,300
2018-05-16T12:17:38.700Z,260
2018-05-16T12:18:39.125Z,260
2018-05-16T12:19:37.934Z,270
2018-05-16T12:20:59.419Z,328
2018-05-16T12:22:22.558Z,388
2018-05-16T12:23:43.893Z,466
2018-05-16T12:24:43.911Z,468
2018-05-16T12:25:44.175Z,453
2018-05-16T12:26:44.584Z,313
2018-05-16T12:27:44.625Z,297
2018-05-16T12:28:43.629Z,288
2018-05-16T12:29:44.522Z,289
2018-05-16T12:30:44.582Z,341
2018-05-16T12:31:43.940Z,376
2018-05-16T12:33:04.712Z,396
2018-05-16T12:34:46.339Z,382
2018-05-16T12:35:47.567Z,385
2018-05-16T12:36:46.259Z,444
2018-05-16T12:37:46.703Z,397
2018-05-16T12:38:46.754Z,548
2018-05-16T12:39:47.105Z,390
2018-05-16T12:40:47.241Z,539
2018-05-16T12:42:08.111Z,307
2018-05-16T12:43:09.330Z,314
2018-05-16T12:44:08.455Z,334
2018-05-16T12:45:29.117Z,233
2018-05-16T12:46:29.706Z,210
2018-05-16T12:47:29.516Z,216
2018-05-16T12:48:29.963Z,246
2018-05-16T12:49:30.897Z,309
2018-05-16T12:50:29.977Z,499
2018-05-16T12:51:30.572Z,299
2018-05-16T12:52:29.929Z,274
2018-05-16T12:53:30.095Z,196
2018-05-16T12:54:31.207Z,178
2018-05-16T12:55:29.108Z,171
2018-05-16T12:56:50.606Z,167
2018-05-16T12:57:51.100Z,176
2018-05-16T12:58:50.953Z,167
2018-05-16T12:59:50.948Z,147
2018-05-16T13:00:51.301Z,124
2018-05-16T13:01:51.643Z,110
2018-05-16T13:02:50.570Z,108
2018-05-16T13:03:50.580Z,113
2018-05-16T13:04:50.654Z,116
2018-05-16T13:05:51.503Z,122
2018-05-16T13:06:51.712Z,136
2018-05-16T13:07:51.164Z,144
2018-05-16T13:08:51.276Z,140
2018-05-16T13:09:51.719Z,135
2018-05-16T13:10:50.537Z,138
2018-05-16T13:11:51.490Z,102
2018-05-16T13:12:51.359Z,111
2018-05-16T13:13:51.209Z,132
2018-05-16T13:14:51.506Z,155
2018-05-16T13:15:51.250Z,222
2018-05-16T13:16:51.223Z,359
2018-05-16T13:17:51.250Z,270
2018-05-16T13:18:51.356Z,407
2018-05-16T13:19:51.402Z,489
2018-05-16T13:20:52.431Z,470
2018-05-16T13:21:51.655Z,523
2018-05-16T13:22:51.154Z,458
2018-05-16T13:23:51.499Z,226
2018-05-16T13:24:51.402Z,494
2018-05-16T13:25:52.411Z,506
2018-05-16T13:27:12.213Z,546
2018-05-16T13:28:33.536Z,571
2018-05-16T13:29:55.659Z,598
2018-05-16T13:30:56.683Z,591
2018-05-16T13:31:55.981Z,564
2018-05-16T13:32:55.858Z,229
2018-05-16T13:33:56.261Z,588
2018-05-16T13:35:16.341Z,555
2018-05-16T13:36:17.249Z,543
2018-05-16T13:37:17.469Z,609
2018-05-16T13:38:17.266Z,623
2018-05-16T13:39:59.068Z,558
2018-05-16T13:40:59.949Z,578
2018-05-16T13:42:01.141Z,617
2018-05-16T13:42:59.557Z,634
2018-05-16T13:44:20.572Z,600
2018-05-16T13:45:51.223Z,650
2018-05-16T13:46:56.232Z,402
2018-05-16T13:47:50.998Z,398
2018-05-16T13:48:51.290Z,271
2018-05-16T13:50:01.482Z,259
2018-05-16T13:50:56.196Z,260
2018-05-16T13:51:58.370Z,267
2018-05-16T13:52:59.582Z,396
2018-05-16T13:53:59.510Z,618
2018-05-16T13:54:52.112Z,513
2018-05-16T13:55:51.059Z,584
2018-05-16T13:56:56.104Z,295
2018-05-16T13:58:23.086Z,465
2018-05-16T13:59:15.215Z,605
2018-05-16T14:00:35.927Z,253
2018-05-16T14:01:36.806Z,283
2018-05-16T14:02:37.201Z,513
2018-05-16T14:03:37.134Z,247
2018-05-16T14:04:36.088Z,227
2018-05-16T14:05:37.111Z,286
2018-05-16T14:06:36.063Z,186
2018-05-16T14:07:36.141Z,182
2018-05-16T14:08:36.216Z,196
2018-05-16T14:09:37.353Z,229
2018-05-16T14:10:37.660Z,575
2018-05-16T14:11:37.137Z,615
2018-05-16T14:12:37.078Z,634
2018-05-16T14:13:57.579Z,599
2018-05-16T14:14:57.513Z,562
2018-05-16T14:15:58.721Z,534
2018-05-16T14:16:57.937Z,269
2018-05-16T14:17:58.292Z,375
2018-05-16T14:18:58.363Z,543
2018-05-16T14:19:57.427Z,309
2018-05-16T14:20:43.735Z,586
2018-05-16T14:21:43.749Z,269
2018-05-16T14:22:43.602Z,325
2018-05-16T14:23:43.965Z,257
2018-05-16T14:24:44.393Z,244
2018-05-16T14:25:44.651Z,246
2018-05-16T14:26:44.000Z,270
2018-05-16T14:27:45.129Z,493
2018-05-16T14:28:44.574Z,273
2018-05-16T14:29:43.967Z,489
2018-05-16T14:30:44.209Z,297
2018-05-16T14:32:05.295Z,540
2018-05-16T14:33:06.105Z,565
2018-05-16T14:34:05.258Z,589
2018-05-16T14:35:05.739Z,586
2018-05-16T14:36:27.587Z,564
2018-05-16T14:37:28.128Z,573
2018-05-16T14:38:28.972Z,586
2018-05-16T14:39:48.910Z,317
2018-05-16T14:40:48.879Z,302
2018-05-16T14:41:49.794Z,451
2018-05-16T14:42:49.919Z,239
2018-05-16T14:43:48.952Z,252
2018-05-16T14:44:48.904Z,206
2018-05-16T14:45:48.998Z,190
2018-05-16T14:46:49.363Z,241
2018-05-16T14:48:31.039Z,210
2018-05-16T14:49:55.866Z,167
2018-05-16T14:50:56.351Z,149
2018-05-16T14:52:00.124Z,136
2018-05-16T14:53:42.123Z,127
2018-05-16T14:54:41.655Z,124